Time;durP1;ratioP1;P1;durP2;ratioP2;P2;SDS_P1;SDS_P2;PMS_P1;PMS_P2;Temp;Humidity;BMP_temperature;BMP_pressure;BME280_temperature;BME280_humidity;BME280_pressure;Samples;Min_cycle;Max_cycle;Signal;HPM_P1;HPM_P2
2020/12/31 00:00:05;;;;;;;6.28;5.25;;;5.10;99.90;;;;;;4920680;29;20189;-84
2020/12/31 00:02:37;;;;;;;8.93;6.97;;;5.10;99.90;;;;;;4920704;29;20190;-86
2020/12/31 00:05:03;;;;;;;6.78;6.00;;;5.20;99.90;;;;;;4921118;29;20170;-85
2020/12/31 00:07:32;;;;;;;7.18;5.75;;;5.20;99.90;;;;;;4919930;29;20193;-84
2020/12/31 00:10:00;;;;;;;7.00;5.53;;;5.10;99.90;;;;;;4922171;29;20511;-86
2020/12/31 00:12:29;;;;;;;10.25;5.93;;;5.10;99.90;;;;;;4952800;29;20190;-85
2020/12/31 00:14:57;;;;;;;9.05;5.93;;;5.00;99.90;;;;;;4940211;29;20180;-85
2020/12/31 00:17:23;;;;;;;7.38;6.10;;;5.00;99.90;;;;;;4938465;29;20299;-85
2020/12/31 00:19:54;;;;;;;12.00;6.90;;;4.90;99.90;;;;;;4936583;29;20177;-85
2020/12/31 00:22:22;;;;;;;9.68;6.60;;;4.80;99.90;;;;;;4962975;28;20191;-86
2020/12/31 00:24:53;;;;;;;10.18;6.07;;;4.80;99.90;;;;;;4938658;29;20567;-86
2020/12/31 00:27:21;;;;;;;12.23;6.80;;;4.80;99.90;;;;;;4939757;29;20181;-86
2020/12/31 00:29:47;;;;;;;12.50;7.32;;;4.80;99.90;;;;;;4938557;29;20197;-86
2020/12/31 00:32:16;;;;;;;10.63;6.80;;;4.80;99.90;;;;;;4928693;29;20205;-86
2020/12/31 00:34:48;;;;;;;8.50;6.00;;;4.80;99.90;;;;;;4938531;29;20184;-86
2020/12/31 00:37:19;;;;;;;9.35;6.72;;;4.80;99.90;;;;;;4953105;29;20251;-85
2020/12/31 00:39:45;;;;;;;7.82;6.72;;;4.80;99.90;;;;;;4942517;29;20193;-85
2020/12/31 00:42:13;;;;;;;8.85;6.57;;;4.80;99.90;;;;;;4938991;29;20184;-85
2020/12/31 00:44:40;;;;;;;10.30;6.20;;;4.80;99.90;;;;;;4940354;29;20192;-84
2020/12/31 00:47:08;;;;;;;8.60;6.35;;;4.70;99.90;;;;;;4939516;29;20180;-85
2020/12/31 00:49:36;;;;;;;8.75;5.53;;;4.70;99.90;;;;;;4935006;29;20280;-85
2020/12/31 00:52:02;;;;;;;6.67;5.40;;;4.60;99.90;;;;;;4937901;29;20271;-85
2020/12/31 00:54:28;;;;;;;9.85;5.93;;;4.60;99.90;;;;;;4921091;29;20433;-84
2020/12/31 00:56:54;;;;;;;8.90;6.00;;;4.60;99.90;;;;;;4961471;28;20216;-85
2020/12/31 00:59:22;;;;;;;11.18;5.78;;;4.70;99.90;;;;;;4952255;29;20432;-85
2020/12/31 01:02:01;;;;;;;8.90;6.32;;;4.60;99.90;;;;;;4936700;29;20184;-85
2020/12/31 01:04:35;;;;;;;7.88;5.80;;;4.60;99.90;;;;;;4940494;28;20279;-85
2020/12/31 01:07:14;;;;;;;8.52;5.95;;;4.60;99.90;;;;;;4951543;29;20203;-85
2020/12/31 01:09:55;;;;;;;8.25;6.45;;;4.60;99.90;;;;;;4959402;28;20203;-86
2020/12/31 01:12:29;;;;;;;10.07;7.03;;;4.70;99.90;;;;;;4938530;29;20187;-85
2020/12/31 01:15:22;;;;;;;7.68;6.28;;;4.90;99.90;;;;;;4936704;29;20197;-86
2020/12/31 01:17:54;;;;;;;9.75;7.30;;;4.80;99.90;;;;;;4954575;28;20224;-86
2020/12/31 01:20:23;;;;;;;9.85;6.60;;;4.70;99.90;;;;;;4935696;29;20218;-85
2020/12/31 01:22:58;;;;;;;9.82;7.03;;;4.70;99.90;;;;;;4936409;29;20224;-85
2020/12/31 01:25:28;;;;;;;11.50;6.70;;;4.70;99.90;;;;;;4930299;29;20324;-85
2020/12/31 01:27:59;;;;;;;11.13;6.95;;;4.70;99.90;;;;;;4918416;29;20275;-85
2020/12/31 01:30:27;;;;;;;12.00;7.30;;;4.60;99.90;;;;;;4919048;29;20190;-84
2020/12/31 01:32:58;;;;;;;10.23;7.47;;;4.60;99.90;;;;;;4918840;29;20185;-84
2020/12/31 01:35:24;;;;;;;12.93;7.15;;;4.60;99.90;;;;;;4936480;28;20276;-85
2020/12/31 01:37:52;;;;;;;11.38;7.95;;;4.60;99.90;;;;;;4955568;28;20181;-85
2020/12/31 01:40:18;;;;;;;10.85;6.75;;;4.60;99.90;;;;;;4930921;29;20200;-84
2020/12/31 01:42:49;;;;;;;13.10;8.45;;;4.60;99.90;;;;;;4940450;29;20213;-85
2020/12/31 01:45:15;;;;;;;13.15;8.60;;;4.60;99.90;;;;;;4923082;29;20276;-85
2020/12/31 01:47:43;;;;;;;10.38;7.38;;;4.70;99.90;;;;;;4968589;28;20189;-83
2020/12/31 01:50:10;;;;;;;11.82;7.97;;;4.70;99.90;;;;;;4935219;29;20526;-85
2020/12/31 01:52:36;;;;;;;11.02;8.48;;;4.70;99.90;;;;;;4936520;29;20203;-84
2020/12/31 01:55:08;;;;;;;12.30;8.90;;;4.60;99.90;;;;;;4919952;29;20188;-85
2020/12/31 01:57:37;;;;;;;15.43;9.80;;;4.70;99.90;;;;;;4952661;29;20866;-85
2020/12/31 02:00:06;;;;;;;16.85;9.73;;;4.60;99.90;;;;;;4933641;29;20189;-84
2020/12/31 02:02:41;;;;;;;16.95;9.00;;;4.70;99.90;;;;;;4966947;28;20172;-85
2020/12/31 02:05:12;;;;;;;12.05;8.63;;;4.60;99.90;;;;;;4948186;28;20265;-84
2020/12/31 02:07:38;;;;;;;13.35;10.00;;;4.60;99.90;;;;;;4931333;29;20179;-84
2020/12/31 02:10:09;;;;;;;13.90;9.57;;;4.60;99.90;;;;;;4937158;28;20193;-85
2020/12/31 02:12:41;;;;;;;13.68;8.45;;;4.60;99.90;;;;;;4918183;29;21823;-84
2020/12/31 02:15:12;;;;;;;17.02;8.45;;;4.70;99.90;;;;;;4917974;29;20212;-84
2020/12/31 02:17:41;;;;;;;14.10;9.05;;;4.60;99.90;;;;;;4918609;29;20592;-84
2020/12/31 02:20:13;;;;;;;10.77;8.07;;;4.70;99.90;;;;;;4951922;29;20243;-84
2020/12/31 02:22:41;;;;;;;13.35;8.68;;;4.60;99.90;;;;;;4951795;29;20235;-82
2020/12/31 02:25:07;;;;;;;10.18;8.00;;;4.60;99.90;;;;;;4947959;28;20189;-83
2020/12/31 02:27:36;;;;;;;11.50;9.17;;;4.70;99.90;;;;;;4917798;29;20200;-83
2020/12/31 02:30:04;;;;;;;15.40;9.13;;;4.70;99.90;;;;;;4918061;29;20447;-83
2020/12/31 02:32:32;;;;;;;12.18;9.02;;;4.90;99.90;;;;;;4934501;29;20710;-90
2020/12/31 02:35:00;;;;;;;11.47;8.43;;;4.70;99.90;;;;;;4934558;29;20280;-89
2020/12/31 02:37:26;;;;;;;10.80;8.93;;;4.70;99.90;;;;;;4918470;29;20480;-89
2020/12/31 02:39:59;;;;;;;12.00;7.60;;;4.70;99.90;;;;;;4928460;29;20196;-89
2020/12/31 02:42:28;;;;;;;11.23;7.78;;;4.80;99.90;;;;;;4969568;28;20176;-89
2020/12/31 02:44:53;;;;;;;12.98;8.98;;;4.90;99.90;;;;;;4953447;29;20275;-88
2020/12/31 02:47:19;;;;;;;11.20;7.60;;;4.90;99.90;;;;;;4938125;29;20263;-88
2020/12/31 02:49:48;;;;;;;13.30;8.65;;;4.90;99.90;;;;;;4937523;29;20433;-89
2020/12/31 02:52:14;;;;;;;9.83;8.57;;;4.90;99.90;;;;;;4953361;29;20576;-87
2020/12/31 02:54:42;;;;;;;11.70;8.63;;;5.10;99.90;;;;;;4968302;28;20435;-89
2020/12/31 02:57:07;;;;;;;11.80;7.88;;;4.90;99.90;;;;;;4941544;28;20467;-89
2020/12/31 02:59:36;;;;;;;10.18;7.53;;;4.90;99.90;;;;;;4938310;29;20185;-89
2020/12/31 03:02:02;;;;;;;10.60;7.90;;;4.90;99.90;;;;;;4938066;29;20188;-89
2020/12/31 03:04:30;;;;;;;11.47;7.60;;;4.90;99.90;;;;;;4938003;29;20421;-88
2020/12/31 03:06:56;;;;;;;9.73;7.55;;;4.90;99.90;;;;;;4923024;29;20441;-88
2020/12/31 03:09:22;;;;;;;10.17;7.20;;;4.80;99.90;;;;;;4928124;29;20562;-88
2020/12/31 03:11:48;;;;;;;8.87;6.53;;;4.90;99.90;;;;;;4956957;29;20424;-88
2020/12/31 03:14:14;;;;;;;11.50;6.77;;;4.80;99.90;;;;;;4941661;28;20432;-87
2020/12/31 03:16:43;;;;;;;8.63;6.40;;;5.10;99.90;;;;;;4942052;29;20472;-89
2020/12/31 03:19:11;;;;;;;10.57;6.95;;;4.70;99.90;;;;;;4938713;29;20436;-88
2020/12/31 03:21:42;;;;;;;12.15;7.28;;;4.70;99.90;;;;;;4941625;28;20660;-87
2020/12/31 03:24:08;;;;;;;9.68;6.82;;;4.70;99.90;;;;;;4956101;29;20220;-88
2020/12/31 03:26:33;;;;;;;13.43;6.80;;;4.70;99.90;;;;;;4972893;28;20284;-88
2020/12/31 03:29:02;;;;;;;9.63;7.20;;;4.70;99.90;;;;;;4941428;29;20440;-88
2020/12/31 03:31:28;;;;;;;11.32;7.28;;;4.60;99.90;;;;;;4941375;29;20432;-86
2020/12/31 03:33:53;;;;;;;9.70;6.93;;;4.60;99.90;;;;;;4941579;28;20191;-89
2020/12/31 03:36:24;;;;;;;9.48;6.85;;;4.70;99.90;;;;;;4925655;29;20473;-88
2020/12/31 03:38:52;;;;;;;10.15;6.93;;;4.60;99.90;;;;;;4922924;29;20204;-89
2020/12/31 03:41:18;;;;;;;7.20;6.03;;;4.60;99.90;;;;;;4940586;29;20267;-87
2020/12/31 03:43:45;;;;;;;8.63;6.13;;;4.60;99.90;;;;;;4956215;29;20583;-88
2020/12/31 03:46:13;;;;;;;9.60;6.30;;;4.60;99.90;;;;;;4941364;28;20444;-89
2020/12/31 03:48:41;;;;;;;8.57;6.45;;;4.60;99.90;;;;;;4956159;29;20569;-87
2020/12/31 03:51:07;;;;;;;9.97;6.10;;;4.60;99.90;;;;;;4941067;29;20192;-88
2020/12/31 03:53:37;;;;;;;9.15;6.57;;;4.60;99.90;;;;;;4940880;29;20434;-87
2020/12/31 03:56:03;;;;;;;7.60;5.97;;;4.60;99.90;;;;;;4941068;29;20630;-86
2020/12/31 03:58:29;;;;;;;8.40;5.90;;;4.60;99.90;;;;;;4932383;29;20213;-87
2020/12/31 04:01:00;;;;;;;7.72;5.97;;;4.60;99.90;;;;;;4921179;29;20425;-87
2020/12/31 04:03:28;;;;;;;8.23;6.40;;;4.50;99.90;;;;;;4952246;28;20189;-87
2020/12/31 04:05:54;;;;;;;9.73;6.53;;;4.50;99.90;;;;;;4920362;29;20524;-86
2020/12/31 04:08:20;;;;;;;9.23;6.07;;;4.50;99.90;;;;;;4921473;29;20902;-87
2020/12/31 04:10:48;;;;;;;8.83;6.10;;;4.50;99.90;;;;;;4937504;29;20431;-85
2020/12/31 04:13:14;;;;;;;6.93;5.78;;;4.50;99.90;;;;;;4935080;29;20433;-85
2020/12/31 04:15:42;;;;;;;8.50;7.10;;;4.40;99.90;;;;;;4921402;29;20199;-88
2020/12/31 04:18:13;;;;;;;6.88;5.75;;;4.40;99.90;;;;;;4932941;29;20510;-87
2020/12/31 04:20:39;;;;;;;8.30;5.97;;;4.40;99.90;;;;;;4939744;29;20189;-88
2020/12/31 04:23:07;;;;;;;7.05;5.47;;;4.30;99.90;;;;;;4939803;29;20232;-88
2020/12/31 04:25:35;;;;;;;7.50;5.63;;;4.40;99.90;;;;;;4940441;28;20191;-87
2020/12/31 04:28:06;;;;;;;9.80;6.70;;;4.40;99.90;;;;;;4971093;28;20433;-88
2020/12/31 04:30:34;;;;;;;8.50;6.40;;;4.40;99.90;;;;;;4937249;29;20178;-89
2020/12/31 04:33:02;;;;;;;10.50;5.80;;;4.30;99.90;;;;;;4920971;29;20196;-87
2020/12/31 04:35:28;;;;;;;8.45;5.50;;;4.40;99.90;;;;;;4921134;29;20504;-86
2020/12/31 04:37:56;;;;;;;6.90;5.63;;;4.30;99.90;;;;;;4928140;29;20236;-87
2020/12/31 04:40:24;;;;;;;7.00;5.90;;;4.20;99.90;;;;;;4967459;28;20758;-88
2020/12/31 04:42:51;;;;;;;7.70;5.90;;;4.00;99.90;;;;;;4974131;28;20191;-87
2020/12/31 04:45:19;;;;;;;9.30;6.25;;;3.70;99.90;;;;;;4961095;28;20428;-88
2020/12/31 04:48:00;;;;;;;9.98;6.90;;;4.20;99.90;;;;;;4939362;29;20556;-89
2020/12/31 04:50:32;;;;;;;13.38;6.70;;;4.20;99.90;;;;;;4939521;29;20232;-88
2020/12/31 04:53:09;;;;;;;12.75;7.50;;;4.30;99.90;;;;;;4939593;29;20235;-89
2020/12/31 04:55:47;;;;;;;12.68;7.68;;;4.20;99.90;;;;;;4938968;29;20193;-88
2020/12/31 04:58:15;;;;;;;11.35;7.35;;;4.20;99.90;;;;;;4939499;29;20188;-87
2020/12/31 05:00:42;;;;;;;10.10;7.30;;;4.10;99.90;;;;;;4939222;29;20185;-86
2020/12/31 05:03:13;;;;;;;12.18;7.55;;;4.20;99.90;;;;;;4938484;29;20238;-86
2020/12/31 05:05:39;;;;;;;10.88;7.72;;;4.10;99.90;;;;;;4938490;29;20247;-85
2020/12/31 05:08:07;;;;;;;11.43;7.80;;;4.10;99.90;;;;;;4938455;29;20188;-86
2020/12/31 05:10:35;;;;;;;10.15;7.80;;;4.20;99.90;;;;;;4938609;29;20195;-86
2020/12/31 05:13:05;;;;;;;10.95;8.35;;;4.10;99.90;;;;;;4924571;29;20181;-88
2020/12/31 05:15:39;;;;;;;11.43;8.70;;;4.10;99.90;;;;;;4918706;29;20287;-87
2020/12/31 05:18:17;;;;;;;13.77;8.68;;;4.10;99.90;;;;;;4924704;29;20185;-86
2020/12/31 05:20:48;;;;;;;13.45;8.90;;;4.20;99.90;;;;;;4952345;28;20531;-87
2020/12/31 05:23:20;;;;;;;13.90;9.85;;;4.20;99.90;;;;;;4953416;29;20236;-86
2020/12/31 05:25:47;;;;;;;12.98;9.23;;;4.20;99.90;;;;;;4938318;29;20177;-87
2020/12/31 05:28:41;;;;;;;15.00;9.18;;;4.30;99.90;;;;;;4968563;28;20180;-85
2020/12/31 05:31:14;;;;;;;12.73;8.95;;;4.20;99.90;;;;;;4935315;28;20189;-85
2020/12/31 05:33:43;;;;;;;12.45;9.40;;;4.30;99.90;;;;;;4938607;28;20193;-87
2020/12/31 05:36:35;;;;;;;10.50;8.50;;;4.40;99.90;;;;;;4937863;29;20227;-87
2020/12/31 05:39:05;;;;;;;11.32;8.40;;;4.30;99.90;;;;;;4941634;28;20343;-87
2020/12/31 05:41:37;;;;;;;10.68;8.02;;;4.30;99.90;;;;;;4920300;28;20181;-87
2020/12/31 05:44:08;;;;;;;13.55;8.30;;;4.40;99.90;;;;;;4919149;29;20186;-86
2020/12/31 05:46:40;;;;;;;13.23;8.52;;;4.50;99.90;;;;;;4951631;29;20210;-86
2020/12/31 05:49:10;;;;;;;10.07;7.93;;;4.30;99.90;;;;;;4942530;29;20195;-85
2020/12/31 05:51:41;;;;;;;12.68;8.40;;;4.30;99.90;;;;;;4967087;28;20696;-85
2020/12/31 05:54:14;;;;;;;9.73;7.78;;;4.40;99.90;;;;;;4930531;28;20209;-85
2020/12/31 05:56:49;;;;;;;12.52;8.55;;;4.30;99.90;;;;;;4918246;29;20247;-85
2020/12/31 05:59:23;;;;;;;12.70;8.93;;;4.50;99.90;;;;;;4931346;29;20188;-86
2020/12/31 06:01:57;;;;;;;11.23;7.78;;;4.30;99.90;;;;;;4968986;28;20181;-86
2020/12/31 06:04:29;;;;;;;11.13;8.63;;;4.30;99.90;;;;;;4943270;29;20188;-86
2020/12/31 06:07:03;;;;;;;9.98;7.47;;;4.40;99.90;;;;;;4937793;29;20199;-86
2020/12/31 06:09:34;;;;;;;11.25;7.60;;;4.30;99.90;;;;;;4940318;28;20188;-86
2020/12/31 06:12:08;;;;;;;13.07;9.10;;;4.30;99.90;;;;;;4952529;29;20255;-85
2020/12/31 06:14:36;;;;;;;14.75;8.90;;;4.30;99.90;;;;;;4936570;28;20184;-85
2020/12/31 06:17:06;;;;;;;10.80;8.07;;;4.30;99.90;;;;;;4937121;29;20219;-85
2020/12/31 06:19:33;;;;;;;14.30;8.45;;;4.40;99.90;;;;;;4936772;29;20600;-84
2020/12/31 06:22:07;;;;;;;13.20;8.68;;;4.40;99.90;;;;;;4944742;29;20631;-85
2020/12/31 06:24:45;;;;;;;11.38;7.93;;;4.40;99.90;;;;;;4939613;29;20287;-85
2020/12/31 06:27:17;;;;;;;10.55;6.97;;;4.30;99.90;;;;;;4937392;28;20176;-85
2020/12/31 06:29:48;;;;;;;10.13;7.43;;;4.30;99.90;;;;;;4932782;29;20280;-85
2020/12/31 06:32:22;;;;;;;9.40;6.35;;;4.60;99.90;;;;;;4952591;28;20236;-85
2020/12/31 06:34:49;;;;;;;7.65;6.13;;;4.30;99.90;;;;;;4928379;29;20181;-85
2020/12/31 06:37:17;;;;;;;6.97;5.35;;;4.30;99.90;;;;;;4922158;29;20677;-85
2020/12/31 06:39:43;;;;;;;8.38;6.10;;;4.30;99.90;;;;;;4959593;28;20188;-86
2020/12/31 06:42:11;;;;;;;6.53;4.57;;;4.30;99.90;;;;;;4935757;29;20637;-85
2020/12/31 06:44:39;;;;;;;5.40;4.70;;;4.20;99.90;;;;;;4929991;28;20428;-86
2020/12/31 06:47:05;;;;;;;5.57;4.25;;;4.20;99.90;;;;;;4920355;29;20292;-86
2020/12/31 06:49:52;;;;;;;6.75;4.45;;;4.40;99.90;;;;;;4936923;29;20185;-85
2020/12/31 06:52:24;;;;;;;6.97;4.65;;;3.90;99.90;;;;;;4923890;29;20203;-85
2020/12/31 06:54:52;;;;;;;6.65;4.70;;;4.20;99.90;;;;;;4936677;29;20248;-85
2020/12/31 06:57:51;;;;;;;6.85;5.30;;;3.70;99.90;;;;;;4936736;29;20676;-86
2020/12/31 07:00:31;;;;;;;9.25;6.15;;;4.30;99.90;;;;;;4949623;28;20193;-86
2020/12/31 07:02:57;;;;;;;7.25;5.85;;;4.30;99.90;;;;;;4918253;29;20181;-86
2020/12/31 07:05:23;;;;;;;9.07;6.70;;;4.20;99.90;;;;;;4932408;29;20230;-84
2020/12/31 07:07:49;;;;;;;6.80;5.18;;;4.20;99.90;;;;;;4936578;28;20436;-84
2020/12/31 07:10:16;;;;;;;7.93;5.60;;;4.20;99.90;;;;;;4945325;29;20546;-87
2020/12/31 07:12:45;;;;;;;8.13;5.65;;;4.10;99.90;;;;;;4937564;28;20184;-85
2020/12/31 07:15:16;;;;;;;8.73;5.72;;;4.20;99.90;;;;;;4922802;29;20205;-86
2020/12/31 07:17:46;;;;;;;5.88;4.70;;;4.10;99.90;;;;;;4955343;28;20719;-85
2020/12/31 07:20:16;;;;;;;6.45;4.72;;;4.10;99.90;;;;;;4949476;28;20320;-85
2020/12/31 07:22:45;;;;;;;7.25;5.13;;;4.10;99.90;;;;;;4932101;29;20177;-84
2020/12/31 07:25:19;;;;;;;6.88;5.22;;;4.10;99.90;;;;;;4917536;29;20193;-85
2020/12/31 07:27:47;;;;;;;5.82;4.82;;;4.10;99.90;;;;;;4941614;29;20180;-85
2020/12/31 07:30:17;;;;;;;7.03;5.35;;;4.10;99.90;;;;;;4936099;29;20197;-85
2020/12/31 07:32:55;;;;;;;7.30;5.43;;;4.00;99.90;;;;;;4927163;29;20200;-85
2020/12/31 07:35:26;;;;;;;7.13;5.53;;;4.10;99.90;;;;;;4917672;29;20211;-85
2020/12/31 07:38:11;;;;;;;7.45;5.75;;;3.90;99.90;;;;;;4916555;29;20229;-84
2020/12/31 07:40:43;;;;;;;10.35;6.75;;;3.90;99.90;;;;;;4961791;28;20202;-85
2020/12/31 07:43:16;;;;;;;10.07;6.13;;;3.80;99.90;;;;;;4943871;29;20279;-85
2020/12/31 07:45:51;;;;;;;7.97;5.72;;;4.00;99.90;;;;;;4933536;29;20181;-85
2020/12/31 07:48:21;;;;;;;8.55;5.93;;;3.80;99.90;;;;;;4954042;28;20262;-85
2020/12/31 07:51:05;;;;;;;8.60;6.53;;;3.90;99.90;;;;;;4947538;28;20216;-85
2020/12/31 07:53:35;;;;;;;9.80;7.38;;;3.80;99.90;;;;;;4937102;29;20201;-85
2020/12/31 07:56:06;;;;;;;9.57;7.75;;;3.90;99.90;;;;;;4953729;29;20253;-84
2020/12/31 07:58:33;;;;;;;8.25;5.97;;;4.10;99.90;;;;;;4939708;29;20192;-84
2020/12/31 08:01:09;;;;;;;7.93;5.72;;;3.90;99.90;;;;;;4938932;29;20526;-84
2020/12/31 08:03:35;;;;;;;8.50;6.03;;;3.90;99.90;;;;;;4939157;29;20184;-85
2020/12/31 08:06:03;;;;;;;10.00;6.00;;;3.80;99.90;;;;;;4920431;29;20205;-85
2020/12/31 08:08:30;;;;;;;9.23;5.80;;;3.90;99.90;;;;;;4920289;29;20216;-86
2020/12/31 08:10:56;;;;;;;7.68;5.63;;;3.80;99.90;;;;;;4937842;29;20583;-85
2020/12/31 08:13:22;;;;;;;6.40;5.35;;;3.80;99.90;;;;;;4939342;29;20197;-86
2020/12/31 08:15:52;;;;;;;7.13;5.33;;;3.80;99.90;;;;;;4921823;28;20194;-84
2020/12/31 08:18:19;;;;;;;7.30;5.57;;;3.80;99.90;;;;;;4921168;29;20460;-86
2020/12/31 08:20:47;;;;;;;7.35;5.30;;;3.80;99.90;;;;;;4938933;29;20216;-84
2020/12/31 08:23:28;;;;;;;8.93;6.05;;;3.80;99.90;;;;;;4938778;28;20537;-86
2020/12/31 08:25:58;;;;;;;7.30;5.18;;;3.80;99.90;;;;;;4939059;28;20176;-84
2020/12/31 08:28:27;;;;;;;8.50;6.00;;;3.60;99.90;;;;;;4924855;29;20197;-84
2020/12/31 08:30:55;;;;;;;6.72;5.20;;;3.80;99.90;;;;;;4919026;29;20520;-85
2020/12/31 08:33:26;;;;;;;8.80;6.30;;;3.90;99.90;;;;;;4932393;29;20201;-84
2020/12/31 08:35:52;;;;;;;7.25;5.80;;;3.70;99.90;;;;;;4920072;29;20189;-83
2020/12/31 08:38:23;;;;;;;7.40;5.85;;;3.80;99.90;;;;;;4939733;29;20316;-86
2020/12/31 08:40:52;;;;;;;7.40;5.90;;;3.80;99.90;;;;;;4949756;29;20330;-86
2020/12/31 08:43:24;;;;;;;10.18;6.50;;;3.80;99.90;;;;;;4938729;29;20200;-85
2020/12/31 08:45:51;;;;;;;7.03;5.43;;;3.80;99.90;;;;;;4937212;29;20184;-85
2020/12/31 08:48:28;;;;;;;9.82;6.30;;;3.80;99.90;;;;;;4959463;28;20693;-86
2020/12/31 08:51:10;;;;;;;8.75;6.65;;;3.80;99.90;;;;;;4919689;29;20212;-85
2020/12/31 08:53:52;;;;;;;7.80;6.30;;;3.80;99.90;;;;;;4923136;29;20187;-85
2020/12/31 08:56:20;;;;;;;7.93;6.30;;;3.90;99.90;;;;;;4951597;29;20248;-85
2020/12/31 08:58:46;;;;;;;9.70;6.72;;;3.80;99.90;;;;;;4920763;29;20736;-86
2020/12/31 09:01:25;;;;;;;8.30;6.88;;;3.90;99.90;;;;;;4931953;29;20209;-86
2020/12/31 09:04:07;;;;;;;10.57;6.50;;;3.90;99.90;;;;;;4954347;29;20199;-85
2020/12/31 09:06:42;;;;;;;9.00;6.10;;;3.90;99.90;;;;;;4939671;28;20622;-85
2020/12/31 09:09:22;;;;;;;8.05;6.13;;;4.00;99.90;;;;;;4931778;29;20184;-84
2020/12/31 09:12:01;;;;;;;8.52;7.18;;;3.90;99.90;;;;;;4958259;29;20250;-84
2020/12/31 09:14:31;;;;;;;8.95;6.20;;;3.90;99.90;;;;;;4925581;28;20193;-84
2020/12/31 09:17:00;;;;;;;10.65;7.00;;;4.00;99.90;;;;;;4920718;29;20283;-84
2020/12/31 09:19:27;;;;;;;9.88;7.60;;;4.00;99.90;;;;;;4934437;29;20224;-86
2020/12/31 09:21:53;;;;;;;9.57;7.00;;;3.80;99.90;;;;;;4932217;28;20215;-86
2020/12/31 09:24:23;;;;;;;10.45;7.50;;;4.10;99.90;;;;;;4920669;29;20492;-86
2020/12/31 09:26:56;;;;;;;8.52;7.05;;;4.40;99.90;;;;;;4919968;29;20193;-86
2020/12/31 09:29:26;;;;;;;8.75;7.05;;;4.20;99.90;;;;;;4934890;29;20627;-86
2020/12/31 09:31:53;;;;;;;9.48;6.82;;;4.20;99.90;;;;;;4954390;28;20243;-86
2020/12/31 09:34:20;;;;;;;8.63;6.70;;;4.40;99.90;;;;;;4954772;29;20212;-86
2020/12/31 09:36:46;;;;;;;10.10;7.90;;;4.20;99.90;;;;;;4934558;28;20216;-86
2020/12/31 09:39:15;;;;;;;8.25;6.60;;;4.30;99.90;;;;;;4943603;28;20522;-86
2020/12/31 09:41:40;;;;;;;9.07;7.45;;;4.40;99.90;;;;;;4955976;28;20260;-88
2020/12/31 09:44:10;;;;;;;9.82;6.90;;;4.40;99.90;;;;;;4939697;29;20180;-85
2020/12/31 09:46:40;;;;;;;12.20;7.38;;;4.20;99.90;;;;;;4939949;29;20634;-86
2020/12/31 09:49:09;;;;;;;10.20;7.90;;;4.30;99.90;;;;;;4938452;29;20197;-86
2020/12/31 09:51:36;;;;;;;10.70;8.25;;;4.50;99.90;;;;;;4970391;28;20207;-88
2020/12/31 09:54:02;;;;;;;10.45;7.80;;;4.40;99.90;;;;;;4971513;28;20184;-88
2020/12/31 09:56:31;;;;;;;11.30;8.43;;;4.50;99.90;;;;;;4939534;29;20271;-89
2020/12/31 09:59:02;;;;;;;10.80;7.65;;;4.40;99.90;;;;;;4955241;29;20408;-89
2020/12/31 10:01:28;;;;;;;9.60;7.38;;;4.40;99.90;;;;;;4940214;29;20195;-86
2020/12/31 10:03:54;;;;;;;12.77;7.70;;;4.50;99.90;;;;;;4940590;29;20601;-86
2020/12/31 10:06:22;;;;;;;12.45;8.05;;;4.60;99.90;;;;;;4925549;29;20433;-88
2020/12/31 10:08:48;;;;;;;10.00;6.70;;;4.50;99.90;;;;;;4921492;29;20710;-89
2020/12/31 10:11:14;;;;;;;11.10;8.60;;;4.40;99.90;;;;;;4921038;29;20465;-89
2020/12/31 10:13:40;;;;;;;12.30;8.20;;;4.40;99.90;;;;;;4936967;29;20200;-88
2020/12/31 10:16:06;;;;;;;11.40;8.40;;;4.50;99.90;;;;;;4924606;29;20850;-89
2020/12/31 10:18:34;;;;;;;11.10;7.87;;;4.40;99.90;;;;;;4940199;28;20439;-89
2020/12/31 10:21:00;;;;;;;10.60;7.68;;;4.50;99.90;;;;;;4939948;29;20748;-89
2020/12/31 10:23:29;;;;;;;10.20;6.65;;;4.60;99.90;;;;;;4939027;29;20252;-87
2020/12/31 10:25:58;;;;;;;8.95;7.35;;;4.50;99.90;;;;;;4939231;29;20192;-84
2020/12/31 10:28:24;;;;;;;9.48;6.57;;;4.60;99.90;;;;;;4939296;29;20242;-86
2020/12/31 10:30:52;;;;;;;10.73;7.73;;;4.60;99.90;;;;;;4938099;29;20318;-87
2020/12/31 10:33:18;;;;;;;9.95;7.32;;;4.50;99.90;;;;;;4940512;29;20428;-88
2020/12/31 10:35:49;;;;;;;8.68;6.80;;;4.50;99.90;;;;;;4938953;29;20199;-87
2020/12/31 10:38:19;;;;;;;10.70;7.07;;;4.60;99.90;;;;;;4955282;29;20188;-87
2020/12/31 10:40:47;;;;;;;11.18;7.28;;;4.70;99.90;;;;;;4939883;29;20491;-85
2020/12/31 10:43:13;;;;;;;9.68;6.70;;;4.70;99.90;;;;;;4939867;29;20180;-87
2020/12/31 10:45:42;;;;;;;9.20;7.40;;;4.60;99.90;;;;;;4939317;29;20216;-88
2020/12/31 10:48:13;;;;;;;8.55;6.78;;;4.80;99.90;;;;;;4941185;29;20199;-88
2020/12/31 10:50:39;;;;;;;9.40;6.70;;;4.60;99.90;;;;;;4940302;29;20191;-87
2020/12/31 10:53:11;;;;;;;9.52;7.53;;;4.70;99.90;;;;;;4940651;29;20645;-88
2020/12/31 10:55:39;;;;;;;8.85;6.80;;;4.70;99.90;;;;;;4939352;29;20181;-88
2020/12/31 10:58:07;;;;;;;10.55;7.63;;;4.70;99.90;;;;;;4954747;28;20188;-87
2020/12/31 11:00:33;;;;;;;9.80;6.90;;;4.70;99.90;;;;;;4959079;28;20632;-88
2020/12/31 11:02:59;;;;;;;11.47;8.13;;;4.90;99.90;;;;;;4958836;28;20506;-88
2020/12/31 11:05:27;;;;;;;10.47;7.30;;;4.80;99.90;;;;;;4960036;28;20456;-89
2020/12/31 11:07:55;;;;;;;10.25;6.45;;;4.80;99.90;;;;;;4941663;28;20515;-88
2020/12/31 11:10:21;;;;;;;10.65;7.03;;;4.80;99.90;;;;;;4938866;29;20273;-89
2020/12/31 11:12:47;;;;;;;9.47;7.23;;;4.70;99.90;;;;;;4940404;29;20228;-88
2020/12/31 11:15:20;;;;;;;10.30;7.45;;;4.80;99.90;;;;;;4954795;28;20451;-88
2020/12/31 11:17:46;;;;;;;10.10;7.55;;;4.80;99.90;;;;;;4940818;29;20219;-89
2020/12/31 11:20:16;;;;;;;11.20;7.15;;;4.70;99.90;;;;;;4937777;29;20264;-86
2020/12/31 11:22:44;;;;;;;9.80;7.03;;;4.80;99.90;;;;;;4938787;29;20191;-88
2020/12/31 11:25:12;;;;;;;10.82;7.15;;;4.90;99.90;;;;;;4935972;29;20192;-88
2020/12/31 11:27:40;;;;;;;9.13;7.13;;;4.80;99.90;;;;;;4954699;28;20188;-87
2020/12/31 11:30:09;;;;;;;10.32;7.03;;;4.80;99.90;;;;;;4943375;29;20184;-88
2020/12/31 11:32:36;;;;;;;9.90;8.10;;;4.90;99.90;;;;;;4977474;28;20313;-85
2020/12/31 11:35:05;;;;;;;10.57;7.93;;;4.80;99.90;;;;;;4945312;28;20440;-86
2020/12/31 11:37:39;;;;;;;9.32;7.70;;;4.90;99.90;;;;;;4941535;29;20653;-87
2020/12/31 11:40:05;;;;;;;10.07;8.07;;;4.70;99.90;;;;;;4942733;29;20188;-86
2020/12/31 11:42:40;;;;;;;9.70;7.35;;;4.80;99.90;;;;;;4942000;29;20265;-85
2020/12/31 11:45:11;;;;;;;9.68;8.05;;;4.70;99.90;;;;;;4941399;29;20593;-86
2020/12/31 11:47:37;;;;;;;9.65;7.25;;;4.80;99.90;;;;;;4956225;29;20205;-86
2020/12/31 11:50:03;;;;;;;8.73;6.97;;;4.80;99.90;;;;;;4946097;29;20264;-86
2020/12/31 11:52:36;;;;;;;8.20;6.90;;;4.90;99.90;;;;;;4931243;29;20463;-86
2020/12/31 11:55:03;;;;;;;8.45;7.38;;;4.80;99.90;;;;;;4970443;28;20664;-86
2020/12/31 11:57:29;;;;;;;7.45;5.85;;;4.80;99.90;;;;;;4940481;29;20295;-87
2020/12/31 11:59:59;;;;;;;7.72;6.50;;;4.80;99.90;;;;;;4954759;29;20567;-87
2020/12/31 12:02:28;;;;;;;9.88;7.40;;;4.80;99.90;;;;;;4940002;29;20194;-87
2020/12/31 12:04:54;;;;;;;9.32;7.28;;;4.90;99.90;;;;;;4939765;29;20196;-86
2020/12/31 12:07:20;;;;;;;7.03;6.33;;;4.80;99.90;;;;;;4939813;29;20184;-87
2020/12/31 12:09:48;;;;;;;9.40;7.53;;;4.80;99.90;;;;;;4931238;28;20436;-87
2020/12/31 12:12:14;;;;;;;8.50;7.47;;;4.70;99.90;;;;;;4939546;29;20432;-85
2020/12/31 12:14:40;;;;;;;8.37;7.37;;;4.80;99.90;;;;;;4935047;29;20679;-86
2020/12/31 12:17:05;;;;;;;7.33;6.63;;;4.80;99.90;;;;;;4933611;29;21070;-87
2020/12/31 12:19:31;;;;;;;9.07;7.27;;;4.80;99.90;;;;;;4939786;28;20586;-86
2020/12/31 12:21:58;;;;;;;8.70;6.87;;;4.80;99.90;;;;;;4968910;28;20908;-87
2020/12/31 12:24:30;;;;;;;9.65;7.30;;;5.10;99.90;;;;;;4948275;28;20515;-86
2020/12/31 12:26:56;;;;;;;8.68;7.00;;;4.50;99.90;;;;;;4940138;29;20267;-85
2020/12/31 12:29:22;;;;;;;8.85;7.30;;;4.90;99.90;;;;;;4940350;29;20200;-88
2020/12/31 12:31:53;;;;;;;10.55;6.47;;;4.90;99.90;;;;;;4954019;29;20196;-86
2020/12/31 12:34:19;;;;;;;8.30;7.10;;;4.90;99.90;;;;;;4959098;29;20188;-87
2020/12/31 12:36:49;;;;;;;8.50;7.60;;;4.70;99.90;;;;;;4948207;28;20637;-86
2020/12/31 12:39:18;;;;;;;9.00;7.07;;;4.90;99.90;;;;;;4938562;29;20630;-86
2020/12/31 12:41:44;;;;;;;7.38;6.20;;;4.70;99.90;;;;;;4939020;29;20544;-85
2020/12/31 12:44:11;;;;;;;9.20;7.05;;;4.70;99.90;;;;;;4939869;29;20192;-86
2020/12/31 12:46:44;;;;;;;7.10;6.35;;;4.80;99.90;;;;;;4954736;29;20244;-86
2020/12/31 12:49:10;;;;;;;8.98;7.25;;;4.70;99.90;;;;;;4954490;29;20512;-85
2020/12/31 12:51:36;;;;;;;7.63;6.73;;;4.80;99.90;;;;;;4922023;29;20204;-86
2020/12/31 12:54:05;;;;;;;9.50;7.87;;;4.70;99.90;;;;;;4920561;29;20830;-87
2020/12/31 12:56:33;;;;;;;7.47;6.78;;;4.70;99.90;;;;;;4950817;29;20528;-86
2020/12/31 12:59:04;;;;;;;8.57;7.28;;;4.70;99.90;;;;;;4920462;29;20194;-87
2020/12/31 13:01:34;;;;;;;9.15;7.63;;;4.70;99.90;;;;;;4936799;29;20206;-85
2020/12/31 13:04:03;;;;;;;7.57;6.78;;;4.80;99.90;;;;;;4938845;28;20684;-85